Maran Gas Achilles — SVCD3 — position and weather

sailwx.info

Track history (hours):
 
Tides and Currents Weather Stations Pressure Air Temp Water Temp Dewpoint Dewpoint Depression Visibility Wind Speed Wind Dir Waves Ship Positions

Maran Gas Achilles

Last reported at 2017-Dec-07 21:52 UTC. Time now 2017-Dec-16 05:09 UTC.
Position S 23°17' E 152°44'.
Warning: this ship's position is 8 days out of date.

Length 290 m; draft 10.8 m.

Type: Ship. MMSI: 241365000.

Date/timePositionNaut miles runAvg speedWind from/ knotsBaromVisibWave heightAir tempDewpointWater temp
2017-Dec-07 21:52S 23°17' E 152°44'715.9
2017-Dec-07 21:27S 23°23' E 152°42'715.8
2017-Dec-07 21:00S 23°30' E 152°40'815.6
2017-Dec-07 20:30S 23°38' E 152°38'815.7
2017-Dec-07 20:01S 23°45' E 152°36'815.8
2017-Dec-07 19:30S 23°52' E 152°33'815.4
2017-Dec-07 19:00S 23°59' E 152°27'815.7
2017-Dec-07 18:30S 23°59' E 152°19'816.2
2017-Dec-07 18:01S 23°58' E 152°10'816.4
2017-Dec-07 17:31S 23°56' E 152°01'815.0
2017-Dec-07 17:00S 23°55' E 151°53'815.0
2017-Dec-07 16:30S 23°53' E 151°45'712.1
2017-Dec-07 15:57S 23°50' E 151°39'10 9.4
2017-Dec-07 14:54S 23°55' E 151°29'5 9.6
2017-Dec-07 14:25S 23°55' E 151°24'410.8
2017-Dec-07 14:00S 23°52' E 151°21'9 7.5
2017-Dec-07 12:49S 23°47' E 151°12'  
Track history (hours):
 
Tides and Currents Weather Stations Pressure Air Temp Water Temp Dewpoint Dewpoint Depression Visibility Wind Speed Wind Dir Waves Ship Positions

Maran Gas Achilles

Last reported at 2017-Dec-07 21:52 UTC. Time now 2017-Dec-16 05:09 UTC.
Position S 23°17' E 152°44'.
Warning: this ship's position is 8 days out of date.

Length 290 m; draft 10.8 m.

Type: Ship. MMSI: 241365000.

Date/timePositionNaut miles runAvg speedWind from/ knotsBaromVisibWave heightAir tempDewpointWater temp
2017-Dec-07 21:52S 23°17' E 152°44'715.9
2017-Dec-07 21:27S 23°23' E 152°42'715.8
2017-Dec-07 21:00S 23°30' E 152°40'815.6
2017-Dec-07 20:30S 23°38' E 152°38'815.7
2017-Dec-07 20:01S 23°45' E 152°36'815.8
2017-Dec-07 19:30S 23°52' E 152°33'815.4
2017-Dec-07 19:00S 23°59' E 152°27'815.7
2017-Dec-07 18:30S 23°59' E 152°19'816.2
2017-Dec-07 18:01S 23°58' E 152°10'816.4
2017-Dec-07 17:31S 23°56' E 152°01'815.0
2017-Dec-07 17:00S 23°55' E 151°53'815.0
2017-Dec-07 16:30S 23°53' E 151°45'712.1
2017-Dec-07 15:57S 23°50' E 151°39'10 9.4
2017-Dec-07 14:54S 23°55' E 151°29'5 9.6
2017-Dec-07 14:25S 23°55' E 151°24'410.8
2017-Dec-07 14:00S 23°52' E 151°21'9 7.5
2017-Dec-07 12:49S 23°47' E 151°12'  

Dump ship's entire track history